Time;durP1;ratioP1;P1;durP2;ratioP2;P2;SDS_P1;SDS_P2;PMS_P1;PMS_P2;Temp;Humidity;BMP_temperature;BMP_pressure;BME280_temperature;BME280_humidity;BME280_pressure;Samples;Min_cycle;Max_cycle;Signal;HPM_P1;HPM_P2
2022/12/01 03:03:07;;;;;;;29.47;26.10;;;4.30;99.90;;;;;;4875958;29;20220;-77
2022/12/01 03:05:45;;;;;;;30.03;26.53;;;4.30;99.90;;;;;;4868958;29;20198;-77
2022/12/01 03:08:18;;;;;;;31.23;26.00;;;4.30;99.90;;;;;;4886069;29;20202;-77
2022/12/01 03:10:51;;;;;;;31.60;27.07;;;4.30;99.90;;;;;;4882027;29;20248;-77
2022/12/01 03:13:26;;;;;;;31.73;28.30;;;4.20;99.90;;;;;;4903924;23;20212;-80
2022/12/01 03:16:00;;;;;;;31.80;28.10;;;4.10;99.90;;;;;;4880673;29;20192;-80
2022/12/01 03:18:34;;;;;;;31.77;27.23;;;4.10;99.90;;;;;;4872508;29;20197;-80
2022/12/01 03:21:08;;;;;;;29.27;26.17;;;4.00;99.90;;;;;;4871771;29;20216;-79
2022/12/01 03:23:38;;;;;;;33.67;28.80;;;4.00;99.90;;;;;;4872707;29;20582;-80
2022/12/01 03:26:08;;;;;;;31.50;27.87;;;3.90;99.90;;;;;;4867633;29;20197;-80
2022/12/01 03:28:39;;;;;;;33.33;28.27;;;3.90;99.90;;;;;;4869289;29;20205;-80
2022/12/01 03:31:14;;;;;;;32.57;28.70;;;3.80;99.90;;;;;;4868956;29;20265;-80
2022/12/01 03:33:47;;;;;;;32.53;28.43;;;3.80;99.90;;;;;;4864035;29;20210;-80
2022/12/01 03:36:20;;;;;;;31.20;26.20;;;3.70;99.90;;;;;;4868849;29;20217;-80
2022/12/01 03:38:52;;;;;;;32.33;26.80;;;3.70;99.90;;;;;;4869580;29;20553;-80
2022/12/01 03:41:24;;;;;;;29.70;26.57;;;3.70;99.90;;;;;;4870314;29;20281;-82
2022/12/01 03:43:55;;;;;;;30.53;27.20;;;3.60;99.90;;;;;;4868394;29;20225;-80
2022/12/01 03:46:29;;;;;;;30.83;27.33;;;3.60;99.90;;;;;;4870192;29;20654;-80
2022/12/01 03:48:57;;;;;;;32.20;26.47;;;3.60;99.90;;;;;;4872859;29;20280;-80
2022/12/01 03:51:31;;;;;;;32.50;27.90;;;3.50;99.90;;;;;;4866151;29;20205;-80
2022/12/01 03:54:07;;;;;;;36.53;27.83;;;3.60;99.90;;;;;;4869894;29;20213;-80
2022/12/01 03:56:39;;;;;;;33.57;27.87;;;3.50;99.90;;;;;;4862073;29;20584;-82
2022/12/01 03:59:07;;;;;;;35.40;27.77;;;3.50;99.90;;;;;;4863110;29;20217;-85
2022/12/01 04:01:35;;;;;;;33.93;28.70;;;3.50;99.90;;;;;;4872835;29;20578;-83
2022/12/01 04:04:08;;;;;;;33.47;26.90;;;3.50;99.90;;;;;;4869758;29;20221;-83
2022/12/01 04:06:36;;;;;;;30.57;26.70;;;3.40;99.90;;;;;;4863280;29;20631;-83
2022/12/01 04:09:03;;;;;;;33.03;28.40;;;3.40;99.90;;;;;;4858092;29;20206;-83
2022/12/01 04:14:15;;;;;;;30.77;26.93;;;3.40;99.90;;;;;;4842534;29;20325;-84
2022/12/01 04:16:41;;;;;;;33.27;26.80;;;3.50;99.90;;;;;;4876809;29;20610;-83
2022/12/01 04:19:11;;;;;;;34.30;28.43;;;3.50;99.90;;;;;;4866037;29;20323;-85
2022/12/01 04:21:38;;;;;;;31.23;27.73;;;3.50;99.90;;;;;;4863286;29;20202;-85
2022/12/01 04:24:05;;;;;;;28.93;25.90;;;3.60;99.90;;;;;;4868780;29;20245;-81
2022/12/01 04:26:34;;;;;;;32.60;26.63;;;3.50;99.90;;;;;;4866958;29;20205;-85
2022/12/01 04:29:01;;;;;;;34.57;29.03;;;3.50;99.90;;;;;;4875325;29;20198;-83
2022/12/01 04:31:29;;;;;;;35.40;28.60;;;3.50;99.90;;;;;;4876572;29;20277;-83
2022/12/01 04:33:56;;;;;;;30.87;27.53;;;3.50;99.90;;;;;;4868562;29;20214;-83
2022/12/01 04:36:25;;;;;;;31.97;27.83;;;3.50;99.90;;;;;;4864157;29;20213;-83
2022/12/01 04:38:52;;;;;;;33.73;27.47;;;3.50;99.90;;;;;;4870486;29;20209;-83
2022/12/01 04:41:19;;;;;;;30.57;25.93;;;3.50;99.90;;;;;;4864213;29;20679;-83
2022/12/01 04:43:46;;;;;;;33.97;26.93;;;3.50;99.90;;;;;;4865282;29;20214;-84
2022/12/01 04:46:14;;;;;;;30.87;27.43;;;3.50;99.90;;;;;;4870690;29;20234;-82
2022/12/01 04:48:42;;;;;;;34.27;28.30;;;3.50;99.90;;;;;;4876180;29;20311;-81
2022/12/01 04:51:09;;;;;;;30.10;26.57;;;3.50;99.90;;;;;;4868001;29;20221;-81
2022/12/01 04:53:37;;;;;;;32.97;27.77;;;3.50;99.90;;;;;;4868734;29;20226;-81
2022/12/01 04:56:05;;;;;;;30.03;26.60;;;3.50;99.90;;;;;;4868177;29;20205;-81
2022/12/01 04:58:33;;;;;;;29.87;26.73;;;3.50;99.90;;;;;;4863691;29;20236;-82
2022/12/01 05:01:02;;;;;;;32.23;28.60;;;3.50;99.90;;;;;;4871779;29;20211;-81
2022/12/01 05:03:29;;;;;;;30.83;26.50;;;3.60;99.90;;;;;;4859084;29;20307;-83
2022/12/01 05:06:02;;;;;;;29.77;26.63;;;3.70;99.90;;;;;;4872809;29;20198;-81
2022/12/01 05:08:29;;;;;;;31.80;28.27;;;3.70;99.90;;;;;;4861440;29;20604;-82
2022/12/01 05:10:57;;;;;;;32.27;27.97;;;3.50;99.90;;;;;;4867098;29;20202;-83
2022/12/01 05:13:24;;;;;;;31.90;28.43;;;3.60;99.90;;;;;;4868307;29;20237;-82
2022/12/01 05:15:51;;;;;;;33.03;27.30;;;3.60;99.90;;;;;;4866834;29;20201;-82
2022/12/01 05:18:18;;;;;;;34.23;27.90;;;3.50;99.90;;;;;;4868424;29;20225;-82
2022/12/01 05:20:56;;;;;;;34.17;27.27;;;3.60;99.90;;;;;;4870026;29;20205;-82
2022/12/01 05:23:24;;;;;;;35.57;29.53;;;3.50;99.90;;;;;;4866790;29;20193;-82
2022/12/01 05:25:50;;;;;;;32.73;29.27;;;3.50;99.90;;;;;;4866503;29;20738;-79
2022/12/01 05:28:19;;;;;;;31.63;26.37;;;3.50;99.90;;;;;;4868865;29;20262;-79
2022/12/01 05:30:46;;;;;;;31.43;28.03;;;3.50;99.90;;;;;;4867811;29;20258;-79
2022/12/01 05:33:13;;;;;;;32.27;28.87;;;3.50;99.90;;;;;;4869140;29;20694;-79
2022/12/01 05:35:39;;;;;;;33.87;28.93;;;3.50;99.90;;;;;;4869114;29;20624;-79
2022/12/01 05:38:06;;;;;;;33.50;28.40;;;3.60;99.90;;;;;;4869447;29;20221;-79
2022/12/01 05:40:34;;;;;;;33.20;28.40;;;3.70;99.90;;;;;;4866506;29;20197;-79
2022/12/01 05:43:00;;;;;;;33.30;29.53;;;3.70;99.90;;;;;;4865612;29;20254;-79
2022/12/01 05:45:29;;;;;;;32.87;27.87;;;3.70;99.90;;;;;;4869398;29;20229;-79
2022/12/01 05:47:56;;;;;;;35.50;29.10;;;3.60;99.90;;;;;;4870422;29;20217;-79
2022/12/01 05:50:23;;;;;;;33.00;27.93;;;3.60;99.90;;;;;;4872206;29;20665;-79
2022/12/01 05:52:50;;;;;;;32.30;28.73;;;3.50;99.90;;;;;;4869361;29;20632;-79
2022/12/01 05:55:17;;;;;;;34.27;29.63;;;3.50;99.90;;;;;;4872375;29;20229;-79
2022/12/01 05:57:44;;;;;;;33.87;29.53;;;3.50;99.90;;;;;;4868647;29;20210;-79
2022/12/01 06:00:13;;;;;;;33.47;29.77;;;3.40;99.90;;;;;;4865598;29;20602;-79
2022/12/01 06:02:42;;;;;;;35.27;29.57;;;3.40;99.90;;;;;;4872347;29;20201;-79
2022/12/01 06:05:09;;;;;;;33.80;29.23;;;3.40;99.90;;;;;;4869937;29;20233;-79
2022/12/01 06:07:38;;;;;;;36.90;29.60;;;3.40;99.90;;;;;;4872109;29;20193;-79
2022/12/01 06:10:07;;;;;;;33.70;28.47;;;3.30;99.90;;;;;;4871864;29;20548;-79
2022/12/01 06:12:33;;;;;;;32.03;28.43;;;3.30;99.90;;;;;;4870809;29;20328;-79
2022/12/01 06:15:01;;;;;;;35.43;29.30;;;3.30;99.90;;;;;;4871345;29;20229;-79
2022/12/01 06:17:27;;;;;;;32.10;28.60;;;3.30;99.90;;;;;;4873464;29;20221;-79
2022/12/01 06:19:56;;;;;;;30.60;27.30;;;3.30;99.90;;;;;;4872020;29;20194;-79
2022/12/01 06:22:23;;;;;;;32.43;28.73;;;3.30;99.90;;;;;;4868694;29;20198;-79
2022/12/01 06:24:49;;;;;;;33.40;28.93;;;3.30;99.90;;;;;;4869618;29;20222;-79
2022/12/01 06:27:16;;;;;;;32.87;28.43;;;3.40;99.90;;;;;;4872197;29;20198;-79
2022/12/01 06:29:43;;;;;;;37.13;29.90;;;3.40;99.90;;;;;;4869410;29;20206;-79
2022/12/01 06:32:10;;;;;;;34.03;29.53;;;3.50;99.90;;;;;;4871034;29;20209;-79
2022/12/01 06:34:37;;;;;;;35.17;30.23;;;3.40;99.90;;;;;;4865870;29;20720;-79
2022/12/01 06:37:05;;;;;;;33.13;28.50;;;3.40;99.90;;;;;;4872326;29;20254;-78
2022/12/01 06:39:32;;;;;;;32.40;28.13;;;3.40;99.90;;;;;;4867702;29;20198;-79
2022/12/01 06:41:59;;;;;;;35.77;29.20;;;3.40;99.90;;;;;;4866787;29;20679;-78
2022/12/01 06:44:26;;;;;;;35.10;29.20;;;3.40;99.90;;;;;;4870499;29;20229;-79
2022/12/01 06:46:53;;;;;;;35.77;28.73;;;3.40;99.90;;;;;;4868854;29;20217;-79
2022/12/01 06:49:20;;;;;;;34.07;28.13;;;3.40;99.90;;;;;;4870863;29;20272;-79
2022/12/01 06:51:47;;;;;;;34.40;28.87;;;3.50;99.90;;;;;;4868145;29;20204;-79
2022/12/01 06:54:16;;;;;;;31.03;27.30;;;3.50;99.90;;;;;;4869562;29;20228;-79
2022/12/01 06:56:44;;;;;;;34.50;29.53;;;3.50;99.90;;;;;;4873027;29;20225;-79
2022/12/01 06:59:11;;;;;;;35.43;29.57;;;3.50;99.90;;;;;;4869491;29;20205;-79
2022/12/01 07:01:38;;;;;;;36.87;29.23;;;3.50;99.90;;;;;;4871767;29;20206;-78
2022/12/01 07:04:05;;;;;;;32.87;29.13;;;3.50;99.90;;;;;;4870591;29;20225;-79
2022/12/01 07:06:32;;;;;;;34.03;28.23;;;3.50;99.90;;;;;;4868544;29;20734;-79
2022/12/01 07:08:59;;;;;;;34.77;28.87;;;3.50;99.90;;;;;;4871923;29;20198;-79
2022/12/01 07:11:28;;;;;;;34.60;29.80;;;3.50;99.90;;;;;;4865768;29;20210;-78
2022/12/01 07:13:56;;;;;;;35.83;29.23;;;3.50;99.90;;;;;;4867062;29;20230;-78
2022/12/01 07:16:23;;;;;;;36.60;28.53;;;3.50;99.90;;;;;;4868971;29;20217;-79
2022/12/01 07:18:50;;;;;;;33.63;29.40;;;3.40;99.90;;;;;;4868587;29;20284;-79
2022/12/01 07:21:17;;;;;;;31.40;28.00;;;3.40;99.90;;;;;;4867732;29;20235;-79
2022/12/01 07:23:44;;;;;;;33.23;28.30;;;3.40;99.90;;;;;;4867591;29;20726;-79
2022/12/01 07:26:12;;;;;;;32.30;28.10;;;3.40;99.90;;;;;;4869258;29;20216;-78
2022/12/01 07:28:41;;;;;;;32.83;28.73;;;3.50;99.90;;;;;;4865713;29;20202;-78
2022/12/01 07:31:11;;;;;;;37.10;29.17;;;3.50;99.90;;;;;;4864037;29;20206;-79
2022/12/01 07:33:38;;;;;;;36.13;30.23;;;3.50;99.90;;;;;;4871939;29;20225;-79
2022/12/01 07:36:06;;;;;;;36.70;29.30;;;3.40;99.90;;;;;;4865924;29;20627;-78
2022/12/01 07:38:34;;;;;;;35.87;29.23;;;3.40;99.90;;;;;;4869129;29;20225;-78
2022/12/01 07:41:05;;;;;;;33.67;28.03;;;3.50;99.90;;;;;;4868082;29;20235;-79
2022/12/01 07:43:33;;;;;;;33.13;27.93;;;3.60;99.90;;;;;;4867690;29;20301;-79
2022/12/01 07:46:07;;;;;;;31.43;27.77;;;3.60;99.90;;;;;;4866842;29;20201;-79
2022/12/01 07:48:34;;;;;;;32.30;28.23;;;3.50;99.90;;;;;;4867339;29;20622;-79
2022/12/01 07:51:01;;;;;;;34.13;29.10;;;3.60;99.90;;;;;;4869918;29;20193;-78
2022/12/01 07:53:28;;;;;;;39.37;29.63;;;3.60;99.90;;;;;;4859087;29;20231;-79
2022/12/01 07:55:55;;;;;;;32.03;27.33;;;3.60;99.90;;;;;;4865515;29;20190;-79
2022/12/01 07:58:22;;;;;;;31.83;28.37;;;3.70;99.90;;;;;;4868802;29;20217;-79
2022/12/01 08:00:49;;;;;;;29.97;26.53;;;3.70;99.90;;;;;;4866562;29;20202;-79
2022/12/01 08:03:17;;;;;;;32.07;27.33;;;3.60;99.90;;;;;;4866877;29;20209;-79
2022/12/01 08:05:44;;;;;;;32.30;27.67;;;3.60;99.90;;;;;;4866610;29;20202;-79
2022/12/01 08:08:11;;;;;;;31.87;26.47;;;3.60;99.90;;;;;;4871347;29;20620;-79
2022/12/01 08:10:38;;;;;;;33.90;28.93;;;3.60;99.90;;;;;;4865845;29;20212;-78
2022/12/01 08:13:04;;;;;;;32.90;28.43;;;3.60;99.90;;;;;;4864235;29;20213;-79
2022/12/01 08:15:31;;;;;;;37.07;29.40;;;3.60;99.90;;;;;;4869651;29;20205;-79
2022/12/01 08:18:02;;;;;;;32.97;27.80;;;3.60;99.90;;;;;;4874362;29;20213;-81
2022/12/01 08:20:30;;;;;;;34.70;28.77;;;3.60;99.90;;;;;;4868233;29;20719;-80
2022/12/01 08:23:00;;;;;;;32.83;27.53;;;3.60;99.90;;;;;;4866122;29;20636;-81
2022/12/01 08:25:27;;;;;;;35.47;28.60;;;3.60;99.90;;;;;;4863442;29;20221;-80
2022/12/01 08:27:54;;;;;;;34.93;27.80;;;3.60;99.90;;;;;;4868588;29;20205;-81
2022/12/01 08:30:21;;;;;;;35.03;28.50;;;3.60;99.90;;;;;;4865246;29;20209;-80
2022/12/01 08:32:49;;;;;;;34.07;28.80;;;3.60;99.90;;;;;;4865580;29;20209;-81
2022/12/01 08:35:16;;;;;;;34.77;28.97;;;3.60;99.90;;;;;;4866581;29;20221;-81
2022/12/01 08:37:44;;;;;;;31.00;27.10;;;3.50;99.90;;;;;;4867687;29;20210;-81
2022/12/01 08:40:12;;;;;;;33.93;28.23;;;3.50;99.90;;;;;;4867287;29;20229;-80
2022/12/01 08:42:38;;;;;;;34.83;28.90;;;3.50;99.90;;;;;;4873109;29;20212;-81
2022/12/01 08:45:06;;;;;;;38.13;29.83;;;3.50;99.90;;;;;;4863857;29;20226;-81
2022/12/01 08:47:33;;;;;;;37.30;28.80;;;3.60;99.90;;;;;;4871242;29;20197;-81
2022/12/01 08:50:00;;;;;;;32.87;28.20;;;3.60;99.90;;;;;;4865460;29;20229;-81
2022/12/01 08:52:31;;;;;;;31.57;28.17;;;3.60;99.90;;;;;;4869333;29;20197;-80
2022/12/01 08:55:00;;;;;;;37.27;28.87;;;3.60;99.90;;;;;;4859924;29;20230;-81
2022/12/01 08:57:29;;;;;;;34.30;27.83;;;3.60;99.90;;;;;;4848698;29;20210;-81
2022/12/01 08:59:56;;;;;;;36.10;28.10;;;3.60;99.90;;;;;;4849570;29;20199;-81
2022/12/01 09:02:23;;;;;;;36.80;28.57;;;3.60;99.90;;;;;;4854047;29;20209;-82
2022/12/01 09:04:50;;;;;;;32.80;28.07;;;3.70;99.90;;;;;;4851026;29;20218;-81
2022/12/01 09:07:19;;;;;;;38.20;28.20;;;3.80;99.90;;;;;;4852255;29;20202;-82
2022/12/01 09:09:46;;;;;;;36.83;29.37;;;3.70;99.90;;;;;;4851823;29;20202;-81
2022/12/01 09:12:15;;;;;;;32.63;27.73;;;3.80;99.90;;;;;;4866038;29;20253;-82
2022/12/01 09:14:46;;;;;;;36.57;29.00;;;3.80;99.90;;;;;;4871088;29;20236;-81
2022/12/01 09:17:15;;;;;;;37.97;30.23;;;3.80;99.90;;;;;;4873119;29;20205;-81
2022/12/01 09:19:42;;;;;;;34.87;29.07;;;3.70;99.90;;;;;;4871800;29;20218;-81
2022/12/01 09:22:09;;;;;;;36.80;29.83;;;3.60;99.90;;;;;;4874358;29;20193;-81
2022/12/01 09:24:36;;;;;;;35.30;28.93;;;3.60;99.90;;;;;;4869230;29;20229;-80
2022/12/01 09:27:04;;;;;;;36.33;30.07;;;3.60;99.90;;;;;;4866803;29;20201;-81
2022/12/01 09:29:32;;;;;;;34.60;29.93;;;3.80;99.90;;;;;;4870479;29;20198;-81
2022/12/01 09:32:00;;;;;;;34.53;30.07;;;3.70;99.90;;;;;;4871157;29;20706;-81
2022/12/01 09:34:28;;;;;;;35.07;28.57;;;3.80;99.90;;;;;;4861806;29;20221;-80
2022/12/01 09:36:57;;;;;;;36.17;29.17;;;3.80;99.90;;;;;;4871347;29;20198;-80
2022/12/01 09:39:24;;;;;;;31.77;28.13;;;3.80;99.90;;;;;;4872415;29;20230;-81
2022/12/01 09:41:55;;;;;;;35.30;28.80;;;3.80;99.90;;;;;;4870737;29;20209;-81
2022/12/01 09:44:36;;;;;;;39.57;31.07;;;3.80;99.90;;;;;;4880068;29;20225;-81
2022/12/01 09:47:09;;;;;;;37.50;30.20;;;3.70;99.90;;;;;;4872861;29;20206;-82
2022/12/01 09:49:53;;;;;;;38.47;30.30;;;3.70;99.90;;;;;;4867569;29;20289;-80
2022/12/01 09:52:21;;;;;;;37.07;29.10;;;3.80;99.90;;;;;;4862219;29;20834;-80
2022/12/01 09:54:49;;;;;;;37.90;31.90;;;3.80;99.90;;;;;;4869540;29;20218;-81
2022/12/01 09:57:25;;;;;;;34.20;29.27;;;3.80;99.90;;;;;;4864933;29;20612;-80
2022/12/01 09:59:54;;;;;;;34.60;28.13;;;3.80;99.90;;;;;;4859517;29;20229;-80
2022/12/01 10:02:30;;;;;;;39.33;31.23;;;3.80;99.90;;;;;;4862661;29;20217;-80
2022/12/01 10:05:01;;;;;;;42.10;31.23;;;3.80;99.90;;;;;;4870463;29;20217;-82
2022/12/01 10:07:32;;;;;;;39.00;31.20;;;3.80;99.90;;;;;;4859906;29;20209;-82
2022/12/01 10:10:02;;;;;;;39.57;30.70;;;3.80;99.90;;;;;;4871394;29;20202;-80
2022/12/01 10:12:32;;;;;;;35.33;29.60;;;3.90;99.90;;;;;;4872180;29;20209;-80
2022/12/01 10:15:14;;;;;;;40.83;32.07;;;3.90;99.90;;;;;;4873268;29;20229;-80
2022/12/01 10:17:55;;;;;;;37.47;30.37;;;3.90;99.90;;;;;;4861524;29;20236;-83
2022/12/01 10:20:31;;;;;;;39.43;32.20;;;3.80;99.90;;;;;;4872495;29;20259;-80
2022/12/01 10:23:18;;;;;;;40.77;32.80;;;3.90;99.90;;;;;;4871725;29;20208;-81
2022/12/01 10:25:52;;;;;;;40.23;32.60;;;3.90;99.90;;;;;;4867634;29;20213;-81
2022/12/01 10:28:44;;;;;;;38.40;32.27;;;3.90;99.90;;;;;;4875673;29;20207;-81
2022/12/01 10:31:18;;;;;;;37.47;31.03;;;3.90;99.90;;;;;;4867520;29;20206;-81
2022/12/01 10:33:57;;;;;;;37.97;30.53;;;3.90;99.90;;;;;;4877715;29;20315;-81
2022/12/01 10:36:24;;;;;;;39.33;31.40;;;4.00;99.90;;;;;;4865651;29;20193;-82
2022/12/01 10:38:51;;;;;;;37.33;31.33;;;3.90;99.90;;;;;;4870547;29;20229;-82
2022/12/01 10:41:19;;;;;;;38.90;32.50;;;3.90;99.90;;;;;;4865480;29;20679;-83
2022/12/01 10:43:48;;;;;;;38.23;31.90;;;3.90;99.90;;;;;;4865663;29;20229;-83
2022/12/01 10:46:24;;;;;;;36.10;30.13;;;3.90;99.90;;;;;;4866213;29;20210;-83
2022/12/01 10:48:56;;;;;;;36.60;31.17;;;4.00;99.90;;;;;;4871630;29;20256;-83
2022/12/01 10:51:23;;;;;;;38.37;32.00;;;3.90;99.90;;;;;;4870639;29;20257;-83
2022/12/01 10:53:57;;;;;;;36.30;31.27;;;3.90;99.90;;;;;;4867439;29;20229;-77
2022/12/01 10:56:24;;;;;;;37.83;31.30;;;3.90;99.90;;;;;;4875273;29;20198;-77
2022/12/01 10:58:53;;;;;;;39.17;31.40;;;3.90;99.90;;;;;;4870897;29;20252;-77
2022/12/01 11:01:24;;;;;;;38.67;31.30;;;3.90;99.90;;;;;;4878012;29;20217;-77
2022/12/01 11:03:55;;;;;;;40.77;32.00;;;4.00;99.90;;;;;;4869362;29;20229;-77
2022/12/01 11:06:25;;;;;;;40.40;32.47;;;4.00;99.90;;;;;;4875076;29;20241;-77
2022/12/01 11:08:55;;;;;;;41.73;31.70;;;4.00;99.90;;;;;;4866679;29;20209;-77
2022/12/01 11:11:31;;;;;;;35.40;30.57;;;4.00;99.90;;;;;;4875333;29;20702;-77
2022/12/01 11:14:01;;;;;;;35.03;30.83;;;4.10;99.90;;;;;;4870907;29;20237;-78
2022/12/01 11:16:52;;;;;;;35.40;30.83;;;4.10;99.90;;;;;;4865401;29;20201;-79
2022/12/01 11:19:27;;;;;;;36.63;30.47;;;4.10;99.90;;;;;;4868694;29;20278;-77
2022/12/01 11:21:56;;;;;;;39.53;30.93;;;4.10;99.90;;;;;;4873225;29;20197;-77
2022/12/01 11:24:39;;;;;;;36.13;30.63;;;4.10;99.90;;;;;;4871268;29;20226;-82
2022/12/01 11:27:15;;;;;;;37.67;32.00;;;4.10;99.90;;;;;;4871010;29;20266;-82
2022/12/01 11:29:43;;;;;;;41.93;33.20;;;4.00;99.90;;;;;;4871548;29;20197;-77
2022/12/01 11:32:18;;;;;;;39.23;31.97;;;4.00;99.90;;;;;;4872444;29;20566;-78
2022/12/01 11:34:51;;;;;;;36.77;31.13;;;4.10;99.90;;;;;;4869664;29;20221;-82
2022/12/01 11:37:20;;;;;;;36.33;31.13;;;4.10;99.90;;;;;;4867686;29;20577;-82
2022/12/01 11:39:48;;;;;;;34.53;30.67;;;4.10;99.90;;;;;;4867155;29;20310;-84
2022/12/01 11:42:25;;;;;;;37.77;29.53;;;4.20;99.90;;;;;;4872198;29;20210;-83
2022/12/01 11:44:55;;;;;;;36.00;30.73;;;4.10;99.90;;;;;;4870142;29;20644;-80
2022/12/01 11:47:25;;;;;;;37.70;30.27;;;4.20;99.90;;;;;;4872540;29;20210;-81
2022/12/01 11:49:55;;;;;;;35.83;31.13;;;4.20;99.90;;;;;;4869941;29;20588;-82
2022/12/01 11:52:28;;;;;;;37.43;32.43;;;4.30;99.90;;;;;;4871305;29;20218;-83
2022/12/01 11:55:01;;;;;;;37.67;31.77;;;4.20;99.90;;;;;;4872349;29;20585;-84
2022/12/01 11:57:30;;;;;;;37.93;31.57;;;4.10;99.90;;;;;;4859411;29;20241;-85
2022/12/01 11:59:57;;;;;;;36.90;32.07;;;4.10;99.90;;;;;;4872316;29;20593;-84
2022/12/01 12:02:35;;;;;;;36.73;31.53;;;4.00;99.90;;;;;;4858074;29;20206;-84
2022/12/01 12:05:36;;;;;;;37.30;30.93;;;4.10;99.90;;;;;;4865446;29;20226;-84
2022/12/01 12:08:12;;;;;;;34.63;29.97;;;4.10;99.90;;;;;;4852095;29;20582;-84
2022/12/01 12:10:49;;;;;;;34.07;30.10;;;4.10;99.90;;;;;;4868624;29;20260;-83
2022/12/01 12:13:39;;;;;;;35.00;29.70;;;4.10;99.90;;;;;;4865500;29;20214;-84
2022/12/01 12:16:15;;;;;;;34.83;29.43;;;4.10;99.90;;;;;;4863244;29;20286;-83
2022/12/01 12:18:57;;;;;;;33.63;29.63;;;4.10;99.90;;;;;;4867206;29;20209;-84
2022/12/01 12:21:32;;;;;;;36.33;31.03;;;4.10;99.90;;;;;;4861405;29;20201;-83
2022/12/01 12:24:19;;;;;;;37.37;30.67;;;4.10;99.90;;;;;;4859961;29;20264;-83
2022/12/01 12:26:55;;;;;;;38.47;29.50;;;4.20;99.90;;;;;;4859126;29;20635;-84
2022/12/01 12:29:36;;;;;;;36.10;30.87;;;4.20;99.90;;;;;;4868894;29;20241;-82
2022/12/01 12:32:19;;;;;;;33.30;29.63;;;4.20;99.90;;;;;;4874529;29;20269;-84
2022/12/01 12:34:57;;;;;;;35.60;28.23;;;4.20;99.90;;;;;;4868225;29;20222;-82
2022/12/01 12:37:34;;;;;;;38.30;29.97;;;4.10;99.90;;;;;;4857547;29;20205;-82
2022/12/01 12:40:26;;;;;;;35.07;31.33;;;4.20;99.90;;;;;;4845873;29;20282;-80
2022/12/01 12:43:05;;;;;;;33.60;30.07;;;4.20;99.90;;;;;;4859868;29;20764;-81
2022/12/01 12:45:42;;;;;;;32.90;29.30;;;4.30;99.90;;;;;;4844779;29;20221;-81
2022/12/01 12:48:21;;;;;;;33.07;29.57;;;4.30;99.90;;;;;;4845640;29;20614;-81
2022/12/01 12:50:57;;;;;;;34.03;29.77;;;4.30;99.90;;;;;;4845838;29;20217;-80
2022/12/01 12:53:27;;;;;;;35.10;29.07;;;4.20;99.90;;;;;;4849709;29;20200;-80
2022/12/01 12:55:59;;;;;;;33.37;29.13;;;4.20;99.90;;;;;;4850697;29;20573;-81
2022/12/01 12:58:29;;;;;;;33.00;29.40;;;4.10;99.90;;;;;;4849422;29;20201;-82
2022/12/01 13:01:00;;;;;;;36.37;29.40;;;4.20;99.90;;;;;;4851362;29;20213;-81
2022/12/01 13:03:35;;;;;;;33.27;29.43;;;4.20;99.90;;;;;;4863087;29;20581;-82
2022/12/01 13:06:08;;;;;;;33.60;29.97;;;4.20;99.90;;;;;;4870212;29;20213;-81
2022/12/01 13:08:40;;;;;;;31.73;27.60;;;4.20;99.90;;;;;;4870256;29;20198;-81
2022/12/01 13:11:13;;;;;;;35.17;29.80;;;4.30;99.90;;;;;;4870114;29;20216;-82
2022/12/01 13:13:54;;;;;;;31.63;28.23;;;4.30;99.90;;;;;;4871177;29;20305;-81
2022/12/01 13:16:26;;;;;;;36.60;29.43;;;4.30;99.90;;;;;;4871990;29;20229;-82
2022/12/01 13:19:01;;;;;;;35.73;29.07;;;4.30;99.90;;;;;;4870950;29;20225;-81
2022/12/01 13:21:34;;;;;;;33.13;28.67;;;4.30;99.90;;;;;;4858926;29;20213;-82
2022/12/01 13:24:02;;;;;;;30.10;26.87;;;4.20;99.90;;;;;;4874281;29;20232;-81
2022/12/01 13:26:29;;;;;;;31.77;28.37;;;4.30;99.90;;;;;;4869603;29;20237;-82
2022/12/01 13:28:58;;;;;;;33.57;29.23;;;4.30;99.90;;;;;;4869304;29;20209;-82
2022/12/01 13:31:25;;;;;;;32.07;28.27;;;4.30;99.90;;;;;;4873129;29;20219;-81
2022/12/01 13:34:00;;;;;;;32.73;28.83;;;4.30;99.90;;;;;;4871035;29;20647;-81
2022/12/01 13:36:28;;;;;;;31.67;28.20;;;4.30;99.90;;;;;;4862981;29;20211;-81
2022/12/01 13:39:01;;;;;;;31.27;27.97;;;4.30;99.90;;;;;;4871886;29;20714;-81
2022/12/01 13:41:32;;;;;;;32.00;28.00;;;4.30;99.90;;;;;;4870209;29;20202;-81
2022/12/01 13:44:02;;;;;;;32.30;28.03;;;4.30;99.90;;;;;;4875203;29;20254;-80
2022/12/01 13:46:32;;;;;;;33.63;28.13;;;4.30;99.90;;;;;;4861200;29;20205;-81
2022/12/01 13:49:01;;;;;;;32.57;28.93;;;4.30;99.90;;;;;;4867591;29;20206;-81
2022/12/01 13:52:07;;;;;;;31.07;27.00;;;4.30;99.90;;;;;;4863975;29;20201;-82
2022/12/01 13:54:37;;;;;;;30.13;26.10;;;4.30;99.90;;;;;;4864112;29;20576;-81
2022/12/01 13:57:06;;;;;;;29.63;26.43;;;4.30;99.90;;;;;;4869945;29;20222;-82
2022/12/01 14:00:01;;;;;;;32.67;28.03;;;4.40;99.90;;;;;;4873592;29;20242;-80
2022/12/01 14:02:29;;;;;;;32.10;28.13;;;4.40;99.90;;;;;;4866518;29;20198;-81
2022/12/01 14:05:34;;;;;;;31.57;27.83;;;4.30;99.90;;;;;;4870563;29;20230;-81
2022/12/01 14:08:15;;;;;;;29.53;26.57;;;4.30;99.90;;;;;;4867908;29;20315;-81
2022/12/01 14:10:52;;;;;;;29.80;25.80;;;4.30;99.90;;;;;;4866484;29;20205;-81
2022/12/01 14:13:21;;;;;;;30.57;27.27;;;4.40;99.90;;;;;;4870539;29;20236;-81
2022/12/01 14:15:54;;;;;;;30.57;27.23;;;4.40;99.90;;;;;;4871834;29;20194;-80
2022/12/01 14:18:32;;;;;;;29.83;26.63;;;4.40;99.90;;;;;;4868768;29;20213;-81
2022/12/01 14:21:01;;;;;;;34.57;29.10;;;4.40;99.90;;;;;;4867668;29;20264;-81
2022/12/01 14:23:32;;;;;;;36.53;29.43;;;4.30;99.90;;;;;;4863479;29;20242;-82
2022/12/01 14:26:16;;;;;;;32.17;27.33;;;4.30;99.90;;;;;;4869639;29;20301;-81
2022/12/01 14:29:20;;;;;;;31.07;27.77;;;4.30;99.90;;;;;;4863506;29;20229;-81
2022/12/01 14:32:18;;;;;;;32.80;29.27;;;4.30;99.90;;;;;;4863716;29;20667;-81
2022/12/01 14:34:49;;;;;;;31.27;28.00;;;4.30;99.90;;;;;;4863695;29;20262;-82
2022/12/01 14:37:19;;;;;;;30.23;27.03;;;4.30;99.90;;;;;;4872266;29;20665;-81
2022/12/01 14:39:50;;;;;;;32.50;27.33;;;4.30;99.90;;;;;;4864478;29;20213;-81
2022/12/01 14:45:15;;;;;;;30.63;26.40;;;4.30;99.90;;;;;;4861884;29;20234;-78
2022/12/01 14:47:45;;;;;;;31.03;27.30;;;4.30;99.90;;;;;;4861013;29;20244;-82
2022/12/01 14:50:16;;;;;;;32.73;27.93;;;4.30;99.90;;;;;;4868939;29;20206;-83
2022/12/01 14:52:46;;;;;;;33.40;28.47;;;4.30;99.90;;;;;;4863689;29;20202;-82
2022/12/01 14:55:17;;;;;;;33.47;28.33;;;4.30;99.90;;;;;;4863115;29;20222;-82
2022/12/01 14:57:49;;;;;;;29.07;25.87;;;4.30;99.90;;;;;;4872692;29;20205;-83
2022/12/01 15:00:19;;;;;;;29.27;26.17;;;4.30;99.90;;;;;;4870252;29;20250;-83
2022/12/01 15:02:50;;;;;;;30.17;27.00;;;4.30;99.90;;;;;;4871907;29;20679;-83
2022/12/01 15:05:19;;;;;;;31.93;27.17;;;4.30;99.90;;;;;;4870921;29;20234;-83
2022/12/01 15:07:48;;;;;;;29.60;26.37;;;4.40;99.90;;;;;;4872419;29;20205;-83
2022/12/01 15:10:18;;;;;;;31.10;27.80;;;4.40;99.90;;;;;;4870037;29;20253;-82
2022/12/01 15:12:46;;;;;;;31.47;28.03;;;4.30;99.90;;;;;;4873203;29;20201;-83
2022/12/01 15:15:16;;;;;;;35.87;29.83;;;4.30;99.90;;;;;;4873202;29;20233;-82
2022/12/01 15:17:43;;;;;;;33.17;29.23;;;4.30;99.90;;;;;;4871079;29;20210;-83
2022/12/01 15:20:28;;;;;;;32.27;28.07;;;4.40;99.90;;;;;;4870768;29;20234;-84
2022/12/01 15:22:56;;;;;;;32.30;28.47;;;4.40;99.90;;;;;;4867284;29;20212;-84
2022/12/01 15:25:25;;;;;;;31.83;28.40;;;4.40;99.90;;;;;;4870044;29;20272;-84
2022/12/01 15:28:10;;;;;;;33.20;29.27;;;4.40;99.90;;;;;;4870681;29;20194;-84
2022/12/01 15:30:37;;;;;;;31.40;28.07;;;4.40;99.90;;;;;;4861911;29;20199;-80
2022/12/01 15:33:05;;;;;;;31.57;28.17;;;4.40;99.90;;;;;;4861579;29;20219;-81
2022/12/01 15:35:33;;;;;;;33.47;29.10;;;4.40;99.90;;;;;;4864476;29;20313;-81
2022/12/01 15:38:02;;;;;;;33.43;28.20;;;4.40;99.90;;;;;;4872869;29;20667;-81
2022/12/01 15:40:31;;;;;;;31.20;27.20;;;4.40;99.90;;;;;;4849586;29;20219;-81
2022/12/01 15:43:04;;;;;;;30.77;27.57;;;4.40;99.90;;;;;;4845670;29;20214;-81
2022/12/01 15:45:42;;;;;;;32.37;27.70;;;4.40;99.90;;;;;;4855769;29;20202;-81
2022/12/01 15:48:16;;;;;;;31.27;27.93;;;4.30;99.90;;;;;;4867064;29;20216;-80
2022/12/01 15:51:00;;;;;;;30.30;27.10;;;4.40;99.90;;;;;;4871340;29;20208;-81
2022/12/01 15:53:31;;;;;;;31.03;27.73;;;4.40;99.90;;;;;;4856194;29;20233;-81
2022/12/01 15:56:00;;;;;;;29.90;26.70;;;4.40;99.90;;;;;;4870635;29;20250;-81
2022/12/01 15:58:30;;;;;;;31.10;27.93;;;4.40;99.90;;;;;;4870653;29;20197;-81
2022/12/01 16:01:00;;;;;;;31.43;27.77;;;4.40;99.90;;;;;;4870807;29;20236;-81
2022/12/01 16:03:28;;;;;;;32.87;27.20;;;4.40;99.90;;;;;;4857725;29;20709;-81